sensor_id;sensor_type;location;lat;lon;timestamp;P1;durP1;ratioP1;P2;durP2;ratioP2
81180;SDS011;70650;51.408;7.132;2024-01-06T00:00:54;20.38;;;8.07;;
81180;SDS011;70650;51.408;7.132;2024-01-06T00:03:19;23.50;;;7.77;;
81180;SDS011;70650;51.408;7.132;2024-01-06T00:05:44;19.23;;;8.83;;
81180;SDS011;70650;51.408;7.132;2024-01-06T00:08:10;20.00;;;8.27;;
81180;SDS011;70650;51.408;7.132;2024-01-06T00:10:35;20.23;;;7.68;;
81180;SDS011;70650;51.408;7.132;2024-01-06T00:13:00;22.57;;;8.47;;
81180;SDS011;70650;51.408;7.132;2024-01-06T00:15:26;19.27;;;8.43;;
81180;SDS011;70650;51.408;7.132;2024-01-06T00:17:51;20.93;;;7.97;;
81180;SDS011;70650;51.408;7.132;2024-01-06T00:20:16;21.40;;;8.82;;
81180;SDS011;70650;51.408;7.132;2024-01-06T00:22:41;19.57;;;7.77;;
81180;SDS011;70650;51.408;7.132;2024-01-06T00:25:09;19.50;;;7.70;;
81180;SDS011;70650;51.408;7.132;2024-01-06T00:27:34;19.92;;;7.53;;
81180;SDS011;70650;51.408;7.132;2024-01-06T00:30:00;17.70;;;6.97;;
81180;SDS011;70650;51.408;7.132;2024-01-06T00:32:25;18.73;;;7.43;;
81180;SDS011;70650;51.408;7.132;2024-01-06T00:34:50;21.07;;;7.07;;
81180;SDS011;70650;51.408;7.132;2024-01-06T00:37:16;16.85;;;6.38;;
81180;SDS011;70650;51.408;7.132;2024-01-06T00:39:43;19.40;;;6.80;;
81180;SDS011;70650;51.408;7.132;2024-01-06T00:42:09;18.30;;;6.90;;
81180;SDS011;70650;51.408;7.132;2024-01-06T00:44:35;15.03;;;6.20;;
81180;SDS011;70650;51.408;7.132;2024-01-06T00:47:01;16.65;;;6.63;;
81180;SDS011;70650;51.408;7.132;2024-01-06T00:49:28;18.38;;;7.72;;
81180;SDS011;70650;51.408;7.132;2024-01-06T00:51:53;16.87;;;7.00;;
81180;SDS011;70650;51.408;7.132;2024-01-06T00:54:18;17.07;;;6.97;;
81180;SDS011;70650;51.408;7.132;2024-01-06T00:56:43;17.53;;;7.37;;
81180;SDS011;70650;51.408;7.132;2024-01-06T00:59:09;14.70;;;6.20;;
81180;SDS011;70650;51.408;7.132;2024-01-06T01:01:34;19.92;;;7.45;;
81180;SDS011;70650;51.408;7.132;2024-01-06T01:03:59;16.20;;;6.67;;
81180;SDS011;70650;51.408;7.132;2024-01-06T01:06:25;16.40;;;6.47;;
81180;SDS011;70650;51.408;7.132;2024-01-06T01:08:50;18.43;;;6.97;;
81180;SDS011;70650;51.408;7.132;2024-01-06T01:11:15;18.50;;;6.88;;
81180;SDS011;70650;51.408;7.132;2024-01-06T01:13:41;17.55;;;7.13;;
81180;SDS011;70650;51.408;7.132;2024-01-06T01:16:06;17.23;;;6.77;;
81180;SDS011;70650;51.408;7.132;2024-01-06T01:18:31;16.77;;;6.57;;
81180;SDS011;70650;51.408;7.132;2024-01-06T01:20:56;19.33;;;6.47;;
81180;SDS011;70650;51.408;7.132;2024-01-06T01:23:22;15.97;;;6.70;;
81180;SDS011;70650;51.408;7.132;2024-01-06T01:25:47;17.70;;;6.65;;
81180;SDS011;70650;51.408;7.132;2024-01-06T01:28:13;17.33;;;6.93;;
81180;SDS011;70650;51.408;7.132;2024-01-06T01:30:38;20.27;;;7.35;;
81180;SDS011;70650;51.408;7.132;2024-01-06T01:33:03;19.70;;;7.50;;
81180;SDS011;70650;51.408;7.132;2024-01-06T01:35:29;18.75;;;7.25;;
81180;SDS011;70650;51.408;7.132;2024-01-06T01:37:54;20.60;;;7.67;;
81180;SDS011;70650;51.408;7.132;2024-01-06T01:40:19;18.40;;;7.57;;
81180;SDS011;70650;51.408;7.132;2024-01-06T01:42:45;20.00;;;7.25;;
81180;SDS011;70650;51.408;7.132;2024-01-06T01:45:10;18.27;;;7.17;;
81180;SDS011;70650;51.408;7.132;2024-01-06T01:47:37;19.83;;;7.07;;
81180;SDS011;70650;51.408;7.132;2024-01-06T01:52:36;19.50;;;8.02;;
81180;SDS011;70650;51.408;7.132;2024-01-06T01:55:04;20.50;;;8.15;;
81180;SDS011;70650;51.408;7.132;2024-01-06T01:57:30;20.00;;;7.25;;
81180;SDS011;70650;51.408;7.132;2024-01-06T01:59:55;22.48;;;7.95;;
81180;SDS011;70650;51.408;7.132;2024-01-06T02:02:21;22.17;;;7.75;;
81180;SDS011;70650;51.408;7.132;2024-01-06T02:04:47;20.48;;;7.85;;
81180;SDS011;70650;51.408;7.132;2024-01-06T02:07:13;19.85;;;7.85;;
81180;SDS011;70650;51.408;7.132;2024-01-06T02:09:38;18.48;;;7.30;;
81180;SDS011;70650;51.408;7.132;2024-01-06T02:12:04;20.52;;;8.50;;
81180;SDS011;70650;51.408;7.132;2024-01-06T02:14:29;20.95;;;7.82;;
81180;SDS011;70650;51.408;7.132;2024-01-06T02:16:57;22.15;;;8.02;;
81180;SDS011;70650;51.408;7.132;2024-01-06T02:19:23;24.23;;;8.65;;
81180;SDS011;70650;51.408;7.132;2024-01-06T02:21:51;22.85;;;9.20;;
81180;SDS011;70650;51.408;7.132;2024-01-06T02:24:17;21.00;;;8.10;;
81180;SDS011;70650;51.408;7.132;2024-01-06T02:26:43;21.25;;;7.75;;
81180;SDS011;70650;51.408;7.132;2024-01-06T02:29:08;20.20;;;7.83;;
81180;SDS011;70650;51.408;7.132;2024-01-06T02:31:35;23.08;;;8.43;;
81180;SDS011;70650;51.408;7.132;2024-01-06T02:34:00;20.50;;;7.35;;
81180;SDS011;70650;51.408;7.132;2024-01-06T02:36:26;24.53;;;8.57;;
81180;SDS011;70650;51.408;7.132;2024-01-06T02:38:51;24.63;;;8.73;;
81180;SDS011;70650;51.408;7.132;2024-01-06T02:41:16;24.07;;;9.60;;
81180;SDS011;70650;51.408;7.132;2024-01-06T02:43:41;26.07;;;8.60;;
81180;SDS011;70650;51.408;7.132;2024-01-06T02:46:07;23.33;;;8.40;;
81180;SDS011;70650;51.408;7.132;2024-01-06T02:48:32;24.38;;;9.00;;
81180;SDS011;70650;51.408;7.132;2024-01-06T02:50:57;26.80;;;9.77;;
81180;SDS011;70650;51.408;7.132;2024-01-06T02:53:24;26.42;;;9.80;;
81180;SDS011;70650;51.408;7.132;2024-01-06T02:55:49;22.63;;;9.20;;
81180;SDS011;70650;51.408;7.132;2024-01-06T02:58:15;28.52;;;10.15;;
81180;SDS011;70650;51.408;7.132;2024-01-06T03:00:40;26.87;;;9.17;;
81180;SDS011;70650;51.408;7.132;2024-01-06T03:03:05;25.00;;;9.63;;
81180;SDS011;70650;51.408;7.132;2024-01-06T03:05:31;25.37;;;9.77;;
81180;SDS011;70650;51.408;7.132;2024-01-06T03:07:56;27.13;;;10.07;;
81180;SDS011;70650;51.408;7.132;2024-01-06T03:10:22;24.08;;;9.63;;
81180;SDS011;70650;51.408;7.132;2024-01-06T03:12:47;27.70;;;10.13;;
81180;SDS011;70650;51.408;7.132;2024-01-06T03:15:14;29.10;;;9.70;;
81180;SDS011;70650;51.408;7.132;2024-01-06T03:17:39;27.02;;;9.18;;
81180;SDS011;70650;51.408;7.132;2024-01-06T03:20:05;26.88;;;9.02;;
81180;SDS011;70650;51.408;7.132;2024-01-06T03:22:30;27.23;;;9.95;;
81180;SDS011;70650;51.408;7.132;2024-01-06T03:24:56;27.60;;;9.85;;
81180;SDS011;70650;51.408;7.132;2024-01-06T03:27:21;25.73;;;9.80;;
81180;SDS011;70650;51.408;7.132;2024-01-06T03:29:46;29.30;;;10.27;;
81180;SDS011;70650;51.408;7.132;2024-01-06T03:32:12;28.73;;;9.95;;
81180;SDS011;70650;51.408;7.132;2024-01-06T03:34:37;31.45;;;10.77;;
81180;SDS011;70650;51.408;7.132;2024-01-06T03:37:02;30.90;;;11.23;;
81180;SDS011;70650;51.408;7.132;2024-01-06T03:39:28;31.33;;;11.43;;
81180;SDS011;70650;51.408;7.132;2024-01-06T03:41:53;27.93;;;9.83;;
81180;SDS011;70650;51.408;7.132;2024-01-06T03:44:18;30.60;;;10.63;;
81180;SDS011;70650;51.408;7.132;2024-01-06T03:46:44;28.35;;;10.75;;
81180;SDS011;70650;51.408;7.132;2024-01-06T03:49:09;23.50;;;9.30;;
81180;SDS011;70650;51.408;7.132;2024-01-06T03:51:34;26.80;;;10.07;;
81180;SDS011;70650;51.408;7.132;2024-01-06T03:54:00;21.90;;;9.17;;
81180;SDS011;70650;51.408;7.132;2024-01-06T03:56:25;22.93;;;9.43;;
81180;SDS011;70650;51.408;7.132;2024-01-06T03:58:50;23.17;;;10.07;;
81180;SDS011;70650;51.408;7.132;2024-01-06T04:01:16;22.15;;;7.95;;
81180;SDS011;70650;51.408;7.132;2024-01-06T04:03:41;19.10;;;7.23;;
81180;SDS011;70650;51.408;7.132;2024-01-06T04:06:07;19.33;;;6.85;;
81180;SDS011;70650;51.408;7.132;2024-01-06T04:08:32;17.25;;;6.65;;
81180;SDS011;70650;51.408;7.132;2024-01-06T04:10:57;17.47;;;7.03;;
81180;SDS011;70650;51.408;7.132;2024-01-06T04:13:23;16.90;;;5.93;;
81180;SDS011;70650;51.408;7.132;2024-01-06T04:15:50;14.90;;;5.55;;
81180;SDS011;70650;51.408;7.132;2024-01-06T04:18:18;14.07;;;5.07;;
81180;SDS011;70650;51.408;7.132;2024-01-06T04:20:43;17.15;;;6.15;;
81180;SDS011;70650;51.408;7.132;2024-01-06T04:23:08;15.73;;;5.28;;
81180;SDS011;70650;51.408;7.132;2024-01-06T04:25:34;15.02;;;5.50;;
81180;SDS011;70650;51.408;7.132;2024-01-06T04:27:59;16.52;;;5.85;;
81180;SDS011;70650;51.408;7.132;2024-01-06T04:30:25;15.30;;;5.33;;
81180;SDS011;70650;51.408;7.132;2024-01-06T04:32:51;15.63;;;4.88;;
81180;SDS011;70650;51.408;7.132;2024-01-06T04:35:16;16.10;;;5.18;;
81180;SDS011;70650;51.408;7.132;2024-01-06T04:37:41;12.82;;;4.85;;
81180;SDS011;70650;51.408;7.132;2024-01-06T04:40:07;13.55;;;4.90;;
81180;SDS011;70650;51.408;7.132;2024-01-06T04:42:33;14.70;;;4.15;;
81180;SDS011;70650;51.408;7.132;2024-01-06T04:44:58;13.65;;;4.55;;
81180;SDS011;70650;51.408;7.132;2024-01-06T04:47:23;13.02;;;3.88;;
81180;SDS011;70650;51.408;7.132;2024-01-06T04:49:49;12.57;;;4.18;;
81180;SDS011;70650;51.408;7.132;2024-01-06T04:52:15;14.43;;;4.43;;
81180;SDS011;70650;51.408;7.132;2024-01-06T04:54:40;12.80;;;4.03;;
81180;SDS011;70650;51.408;7.132;2024-01-06T04:57:05;13.67;;;4.43;;
81180;SDS011;70650;51.408;7.132;2024-01-06T04:59:30;14.70;;;4.77;;
81180;SDS011;70650;51.408;7.132;2024-01-06T05:01:57;11.73;;;4.20;;
81180;SDS011;70650;51.408;7.132;2024-01-06T05:04:23;12.63;;;4.38;;
81180;SDS011;70650;51.408;7.132;2024-01-06T05:06:49;16.25;;;4.90;;
81180;SDS011;70650;51.408;7.132;2024-01-06T05:09:18;13.52;;;4.18;;
81180;SDS011;70650;51.408;7.132;2024-01-06T05:11:45;11.68;;;3.55;;
81180;SDS011;70650;51.408;7.132;2024-01-06T05:14:10;14.43;;;5.07;;
81180;SDS011;70650;51.408;7.132;2024-01-06T05:16:36;15.13;;;4.43;;
81180;SDS011;70650;51.408;7.132;2024-01-06T05:19:01;16.17;;;4.43;;
81180;SDS011;70650;51.408;7.132;2024-01-06T05:21:27;14.23;;;4.32;;
81180;SDS011;70650;51.408;7.132;2024-01-06T05:23:53;11.48;;;3.63;;
81180;SDS011;70650;51.408;7.132;2024-01-06T05:26:18;14.30;;;4.53;;
81180;SDS011;70650;51.408;7.132;2024-01-06T05:28:43;13.00;;;4.20;;
81180;SDS011;70650;51.408;7.132;2024-01-06T05:31:08;12.73;;;4.13;;
81180;SDS011;70650;51.408;7.132;2024-01-06T05:33:34;12.60;;;4.40;;
81180;SDS011;70650;51.408;7.132;2024-01-06T05:35:59;14.27;;;4.27;;
81180;SDS011;70650;51.408;7.132;2024-01-06T05:38:24;12.10;;;4.63;;
81180;SDS011;70650;51.408;7.132;2024-01-06T05:40:50;14.60;;;4.70;;
81180;SDS011;70650;51.408;7.132;2024-01-06T05:43:15;14.00;;;4.30;;
81180;SDS011;70650;51.408;7.132;2024-01-06T05:45:40;11.88;;;4.00;;
81180;SDS011;70650;51.408;7.132;2024-01-06T05:48:09;11.57;;;4.03;;
81180;SDS011;70650;51.408;7.132;2024-01-06T05:50:35;13.48;;;4.68;;
81180;SDS011;70650;51.408;7.132;2024-01-06T05:53:00;12.07;;;4.50;;
81180;SDS011;70650;51.408;7.132;2024-01-06T05:55:25;13.97;;;4.70;;
81180;SDS011;70650;51.408;7.132;2024-01-06T05:57:51;13.07;;;4.25;;
81180;SDS011;70650;51.408;7.132;2024-01-06T06:00:16;12.73;;;4.25;;
81180;SDS011;70650;51.408;7.132;2024-01-06T06:02:42;14.13;;;4.43;;
81180;SDS011;70650;51.408;7.132;2024-01-06T06:05:07;12.33;;;4.00;;
81180;SDS011;70650;51.408;7.132;2024-01-06T06:07:32;13.43;;;3.75;;
81180;SDS011;70650;51.408;7.132;2024-01-06T06:10:03;13.35;;;4.20;;
81180;SDS011;70650;51.408;7.132;2024-01-06T06:12:31;13.52;;;4.15;;
81180;SDS011;70650;51.408;7.132;2024-01-06T06:14:57;12.48;;;3.97;;
81180;SDS011;70650;51.408;7.132;2024-01-06T06:17:22;10.65;;;3.85;;
81180;SDS011;70650;51.408;7.132;2024-01-06T06:19:47;11.97;;;3.60;;
81180;SDS011;70650;51.408;7.132;2024-01-06T06:22:13;11.37;;;3.93;;
81180;SDS011;70650;51.408;7.132;2024-01-06T06:24:38;10.95;;;3.80;;
81180;SDS011;70650;51.408;7.132;2024-01-06T06:27:03;12.97;;;4.77;;
81180;SDS011;70650;51.408;7.132;2024-01-06T06:29:29;12.30;;;3.90;;
81180;SDS011;70650;51.408;7.132;2024-01-06T06:31:54;12.13;;;4.00;;
81180;SDS011;70650;51.408;7.132;2024-01-06T06:34:19;12.37;;;4.03;;
81180;SDS011;70650;51.408;7.132;2024-01-06T06:36:45;12.17;;;4.23;;
81180;SDS011;70650;51.408;7.132;2024-01-06T06:39:11;11.65;;;3.78;;
81180;SDS011;70650;51.408;7.132;2024-01-06T06:41:36;11.10;;;3.33;;
81180;SDS011;70650;51.408;7.132;2024-01-06T06:44:01;11.17;;;4.03;;
81180;SDS011;70650;51.408;7.132;2024-01-06T06:46:27;12.57;;;3.72;;
81180;SDS011;70650;51.408;7.132;2024-01-06T06:48:52;10.98;;;3.13;;
81180;SDS011;70650;51.408;7.132;2024-01-06T06:51:17;11.77;;;3.92;;
81180;SDS011;70650;51.408;7.132;2024-01-06T06:53:43;9.57;;;3.47;;
81180;SDS011;70650;51.408;7.132;2024-01-06T06:56:08;10.93;;;3.30;;
81180;SDS011;70650;51.408;7.132;2024-01-06T06:58:34;11.65;;;3.95;;
81180;SDS011;70650;51.408;7.132;2024-01-06T07:01:00;12.02;;;4.03;;
81180;SDS011;70650;51.408;7.132;2024-01-06T07:03:27;8.98;;;2.75;;
81180;SDS011;70650;51.408;7.132;2024-01-06T07:05:52;8.90;;;3.35;;
81180;SDS011;70650;51.408;7.132;2024-01-06T07:08:18;11.37;;;3.57;;
81180;SDS011;70650;51.408;7.132;2024-01-06T07:10:44;14.07;;;5.63;;
81180;SDS011;70650;51.408;7.132;2024-01-06T07:13:09;14.45;;;5.25;;
81180;SDS011;70650;51.408;7.132;2024-01-06T07:15:35;16.35;;;6.03;;
81180;SDS011;70650;51.408;7.132;2024-01-06T07:18:00;15.83;;;6.37;;
81180;SDS011;70650;51.408;7.132;2024-01-06T07:20:25;15.68;;;6.57;;
81180;SDS011;70650;51.408;7.132;2024-01-06T07:22:51;18.63;;;6.77;;
81180;SDS011;70650;51.408;7.132;2024-01-06T07:25:16;17.33;;;7.10;;
81180;SDS011;70650;51.408;7.132;2024-01-06T07:27:41;17.23;;;6.73;;
81180;SDS011;70650;51.408;7.132;2024-01-06T07:30:07;18.83;;;6.80;;
81180;SDS011;70650;51.408;7.132;2024-01-06T07:32:35;18.48;;;6.70;;
81180;SDS011;70650;51.408;7.132;2024-01-06T07:35:00;17.65;;;7.20;;
81180;SDS011;70650;51.408;7.132;2024-01-06T07:37:25;19.80;;;7.73;;
81180;SDS011;70650;51.408;7.132;2024-01-06T07:39:51;17.92;;;7.00;;
81180;SDS011;70650;51.408;7.132;2024-01-06T07:42:16;18.63;;;6.70;;
81180;SDS011;70650;51.408;7.132;2024-01-06T07:44:42;17.70;;;6.88;;
81180;SDS011;70650;51.408;7.132;2024-01-06T07:47:07;16.35;;;7.05;;
81180;SDS011;70650;51.408;7.132;2024-01-06T07:49:33;19.80;;;7.10;;
81180;SDS011;70650;51.408;7.132;2024-01-06T07:51:58;19.05;;;6.85;;
81180;SDS011;70650;51.408;7.132;2024-01-06T07:54:23;17.42;;;6.65;;
81180;SDS011;70650;51.408;7.132;2024-01-06T07:56:49;14.13;;;5.47;;
81180;SDS011;70650;51.408;7.132;2024-01-06T07:59:14;15.33;;;5.77;;
81180;SDS011;70650;51.408;7.132;2024-01-06T08:01:39;19.30;;;6.13;;
81180;SDS011;70650;51.408;7.132;2024-01-06T08:04:07;20.05;;;6.80;;
81180;SDS011;70650;51.408;7.132;2024-01-06T08:06:33;19.88;;;6.53;;
81180;SDS011;70650;51.408;7.132;2024-01-06T08:08:58;20.52;;;6.70;;
81180;SDS011;70650;51.408;7.132;2024-01-06T08:11:23;20.67;;;7.13;;
81180;SDS011;70650;51.408;7.132;2024-01-06T08:13:49;24.77;;;7.23;;
81180;SDS011;70650;51.408;7.132;2024-01-06T08:16:14;22.70;;;8.30;;
81180;SDS011;70650;51.408;7.132;2024-01-06T08:18:39;23.55;;;7.97;;
81180;SDS011;70650;51.408;7.132;2024-01-06T08:21:05;26.35;;;8.98;;
81180;SDS011;70650;51.408;7.132;2024-01-06T08:23:30;29.27;;;9.03;;
81180;SDS011;70650;51.408;7.132;2024-01-06T08:25:56;24.98;;;8.35;;
81180;SDS011;70650;51.408;7.132;2024-01-06T08:28:22;26.83;;;9.50;;
81180;SDS011;70650;51.408;7.132;2024-01-06T08:30:48;29.80;;;12.18;;
81180;SDS011;70650;51.408;7.132;2024-01-06T08:33:14;27.38;;;8.80;;
81180;SDS011;70650;51.408;7.132;2024-01-06T08:35:40;22.58;;;7.95;;
81180;SDS011;70650;51.408;7.132;2024-01-06T08:38:06;19.27;;;6.60;;
81180;SDS011;70650;51.408;7.132;2024-01-06T08:40:34;16.05;;;6.43;;
81180;SDS011;70650;51.408;7.132;2024-01-06T08:43:00;18.45;;;6.38;;
81180;SDS011;70650;51.408;7.132;2024-01-06T08:45:25;17.52;;;6.25;;
81180;SDS011;70650;51.408;7.132;2024-01-06T08:47:50;21.33;;;6.53;;
81180;SDS011;70650;51.408;7.132;2024-01-06T08:50:16;19.33;;;5.87;;
81180;SDS011;70650;51.408;7.132;2024-01-06T08:52:41;18.15;;;6.18;;
81180;SDS011;70650;51.408;7.132;2024-01-06T08:55:07;19.23;;;5.75;;
81180;SDS011;70650;51.408;7.132;2024-01-06T08:57:32;17.67;;;5.90;;
81180;SDS011;70650;51.408;7.132;2024-01-06T08:59:58;19.50;;;6.93;;
81180;SDS011;70650;51.408;7.132;2024-01-06T09:02:24;18.63;;;5.75;;
81180;SDS011;70650;51.408;7.132;2024-01-06T09:04:49;19.42;;;5.88;;
81180;SDS011;70650;51.408;7.132;2024-01-06T09:07:14;17.63;;;5.80;;
81180;SDS011;70650;51.408;7.132;2024-01-06T09:09:42;15.70;;;6.15;;
81180;SDS011;70650;51.408;7.132;2024-01-06T09:12:08;17.77;;;5.07;;
81180;SDS011;70650;51.408;7.132;2024-01-06T09:14:34;16.05;;;5.78;;
81180;SDS011;70650;51.408;7.132;2024-01-06T09:16:59;19.97;;;5.67;;
81180;SDS011;70650;51.408;7.132;2024-01-06T09:19:24;16.88;;;6.05;;
81180;SDS011;70650;51.408;7.132;2024-01-06T09:21:53;18.98;;;6.07;;
81180;SDS011;70650;51.408;7.132;2024-01-06T09:24:19;18.02;;;6.05;;
81180;SDS011;70650;51.408;7.132;2024-01-06T09:26:44;20.00;;;6.27;;
81180;SDS011;70650;51.408;7.132;2024-01-06T09:29:09;19.90;;;6.73;;
81180;SDS011;70650;51.408;7.132;2024-01-06T09:31:35;19.47;;;6.20;;
81180;SDS011;70650;51.408;7.132;2024-01-06T09:34:00;19.90;;;6.33;;
81180;SDS011;70650;51.408;7.132;2024-01-06T09:36:32;19.10;;;6.18;;
81180;SDS011;70650;51.408;7.132;2024-01-06T09:38:57;18.17;;;6.05;;
81180;SDS011;70650;51.408;7.132;2024-01-06T09:41:22;20.07;;;6.73;;
81180;SDS011;70650;51.408;7.132;2024-01-06T09:43:49;19.77;;;6.32;;
81180;SDS011;70650;51.408;7.132;2024-01-06T09:46:17;21.67;;;6.90;;
81180;SDS011;70650;51.408;7.132;2024-01-06T09:48:50;18.13;;;6.85;;
81180;SDS011;70650;51.408;7.132;2024-01-06T09:51:18;20.73;;;6.80;;
81180;SDS011;70650;51.408;7.132;2024-01-06T09:53:56;20.27;;;6.53;;
81180;SDS011;70650;51.408;7.132;2024-01-06T09:56:31;16.95;;;6.25;;
81180;SDS011;70650;51.408;7.132;2024-01-06T09:58:57;20.43;;;6.80;;
81180;SDS011;70650;51.408;7.132;2024-01-06T10:01:22;16.97;;;5.87;;
81180;SDS011;70650;51.408;7.132;2024-01-06T10:03:48;21.27;;;7.53;;
81180;SDS011;70650;51.408;7.132;2024-01-06T10:06:15;19.75;;;6.90;;
81180;SDS011;70650;51.408;7.132;2024-01-06T10:08:48;19.08;;;6.13;;
81180;SDS011;70650;51.408;7.132;2024-01-06T10:11:21;18.70;;;6.95;;
81180;SDS011;70650;51.408;7.132;2024-01-06T10:13:50;20.98;;;6.68;;
81180;SDS011;70650;51.408;7.132;2024-01-06T10:16:16;17.17;;;5.72;;
81180;SDS011;70650;51.408;7.132;2024-01-06T10:18:42;16.65;;;6.10;;
81180;SDS011;70650;51.408;7.132;2024-01-06T10:21:09;16.10;;;5.20;;
81180;SDS011;70650;51.408;7.132;2024-01-06T10:23:34;17.95;;;5.50;;
81180;SDS011;70650;51.408;7.132;2024-01-06T10:26:01;14.30;;;4.55;;
81180;SDS011;70650;51.408;7.132;2024-01-06T10:28:28;12.38;;;4.10;;
81180;SDS011;70650;51.408;7.132;2024-01-06T10:30:53;14.63;;;5.15;;
81180;SDS011;70650;51.408;7.132;2024-01-06T10:33:21;17.17;;;6.10;;
81180;SDS011;70650;51.408;7.132;2024-01-06T10:35:47;21.17;;;7.20;;
81180;SDS011;70650;51.408;7.132;2024-01-06T10:38:13;21.60;;;7.38;;
81180;SDS011;70650;51.408;7.132;2024-01-06T10:41:03;18.45;;;6.53;;
81180;SDS011;70650;51.408;7.132;2024-01-06T10:43:32;20.45;;;7.25;;
81180;SDS011;70650;51.408;7.132;2024-01-06T10:46:06;20.92;;;7.10;;
81180;SDS011;70650;51.408;7.132;2024-01-06T10:48:35;18.83;;;7.35;;
81180;SDS011;70650;51.408;7.132;2024-01-06T10:51:03;19.20;;;7.47;;
81180;SDS011;70650;51.408;7.132;2024-01-06T10:53:32;21.33;;;7.65;;
81180;SDS011;70650;51.408;7.132;2024-01-06T10:56:02;18.58;;;7.53;;
81180;SDS011;70650;51.408;7.132;2024-01-06T10:58:28;18.60;;;7.22;;
81180;SDS011;70650;51.408;7.132;2024-01-06T11:00:56;17.83;;;6.40;;
81180;SDS011;70650;51.408;7.132;2024-01-06T11:03:22;11.93;;;4.60;;
81180;SDS011;70650;51.408;7.132;2024-01-06T11:05:47;15.45;;;4.43;;
81180;SDS011;70650;51.408;7.132;2024-01-06T11:08:13;16.10;;;6.10;;
81180;SDS011;70650;51.408;7.132;2024-01-06T11:10:42;16.20;;;5.30;;
81180;SDS011;70650;51.408;7.132;2024-01-06T11:13:10;19.38;;;5.03;;
81180;SDS011;70650;51.408;7.132;2024-01-06T11:15:44;16.15;;;5.57;;
81180;SDS011;70650;51.408;7.132;2024-01-06T11:18:31;18.23;;;6.13;;
81180;SDS011;70650;51.408;7.132;2024-01-06T11:23:44;17.70;;;5.68;;
81180;SDS011;70650;51.408;7.132;2024-01-06T11:26:10;15.13;;;4.50;;
81180;SDS011;70650;51.408;7.132;2024-01-06T11:28:47;13.05;;;4.47;;
81180;SDS011;70650;51.408;7.132;2024-01-06T11:31:15;16.75;;;4.43;;
81180;SDS011;70650;51.408;7.132;2024-01-06T11:33:41;14.55;;;4.75;;
81180;SDS011;70650;51.408;7.132;2024-01-06T11:36:14;16.23;;;4.85;;
81180;SDS011;70650;51.408;7.132;2024-01-06T11:38:39;16.38;;;4.95;;
81180;SDS011;70650;51.408;7.132;2024-01-06T11:41:08;15.57;;;5.32;;
81180;SDS011;70650;51.408;7.132;2024-01-06T11:43:40;16.17;;;4.97;;
81180;SDS011;70650;51.408;7.132;2024-01-06T11:46:05;16.10;;;5.28;;
81180;SDS011;70650;51.408;7.132;2024-01-06T11:48:32;16.17;;;4.88;;
81180;SDS011;70650;51.408;7.132;2024-01-06T11:50:58;15.77;;;5.18;;
81180;SDS011;70650;51.408;7.132;2024-01-06T11:53:26;15.98;;;4.60;;
81180;SDS011;70650;51.408;7.132;2024-01-06T11:55:52;14.70;;;5.07;;
81180;SDS011;70650;51.408;7.132;2024-01-06T11:58:17;12.38;;;4.38;;
81180;SDS011;70650;51.408;7.132;2024-01-06T12:00:42;12.02;;;4.00;;
81180;SDS011;70650;51.408;7.132;2024-01-06T12:03:09;12.57;;;3.88;;
81180;SDS011;70650;51.408;7.132;2024-01-06T12:05:34;14.65;;;4.63;;
81180;SDS011;70650;51.408;7.132;2024-01-06T12:08:01;12.50;;;4.00;;
81180;SDS011;70650;51.408;7.132;2024-01-06T12:10:31;13.35;;;4.80;;
81180;SDS011;70650;51.408;7.132;2024-01-06T12:12:58;17.95;;;5.93;;
81180;SDS011;70650;51.408;7.132;2024-01-06T12:15:26;17.48;;;5.03;;
81180;SDS011;70650;51.408;7.132;2024-01-06T12:17:52;15.82;;;5.50;;
81180;SDS011;70650;51.408;7.132;2024-01-06T12:20:18;17.55;;;5.65;;
81180;SDS011;70650;51.408;7.132;2024-01-06T12:22:43;17.42;;;6.10;;
81180;SDS011;70650;51.408;7.132;2024-01-06T12:25:09;19.02;;;5.97;;
81180;SDS011;70650;51.408;7.132;2024-01-06T12:27:35;20.13;;;6.57;;
81180;SDS011;70650;51.408;7.132;2024-01-06T12:30:00;17.02;;;6.00;;
81180;SDS011;70650;51.408;7.132;2024-01-06T12:32:26;22.88;;;7.65;;
81180;SDS011;70650;51.408;7.132;2024-01-06T12:34:51;23.58;;;7.95;;
81180;SDS011;70650;51.408;7.132;2024-01-06T12:37:16;24.90;;;7.70;;
81180;SDS011;70650;51.408;7.132;2024-01-06T12:39:42;23.52;;;8.95;;
81180;SDS011;70650;51.408;7.132;2024-01-06T12:42:10;25.98;;;9.52;;
81180;SDS011;70650;51.408;7.132;2024-01-06T12:44:36;19.77;;;7.05;;
81180;SDS011;70650;51.408;7.132;2024-01-06T12:47:03;23.55;;;7.93;;
81180;SDS011;70650;51.408;7.132;2024-01-06T12:49:29;23.52;;;8.18;;
81180;SDS011;70650;51.408;7.132;2024-01-06T12:51:56;23.08;;;7.93;;
81180;SDS011;70650;51.408;7.132;2024-01-06T12:54:21;20.30;;;6.50;;
81180;SDS011;70650;51.408;7.132;2024-01-06T12:56:46;23.90;;;7.60;;
81180;SDS011;70650;51.408;7.132;2024-01-06T12:59:12;23.00;;;7.25;;
81180;SDS011;70650;51.408;7.132;2024-01-06T13:01:38;24.70;;;8.35;;
81180;SDS011;70650;51.408;7.132;2024-01-06T13:04:04;24.35;;;8.35;;
81180;SDS011;70650;51.408;7.132;2024-01-06T13:06:29;22.98;;;8.25;;
81180;SDS011;70650;51.408;7.132;2024-01-06T13:08:56;22.58;;;7.80;;
81180;SDS011;70650;51.408;7.132;2024-01-06T13:11:21;25.02;;;8.75;;
81180;SDS011;70650;51.408;7.132;2024-01-06T13:13:47;21.25;;;7.72;;
81180;SDS011;70650;51.408;7.132;2024-01-06T13:16:12;21.15;;;7.78;;
81180;SDS011;70650;51.408;7.132;2024-01-06T13:18:38;16.75;;;6.28;;
81180;SDS011;70650;51.408;7.132;2024-01-06T13:21:03;16.80;;;6.03;;
81180;SDS011;70650;51.408;7.132;2024-01-06T13:23:29;18.23;;;6.00;;
81180;SDS011;70650;51.408;7.132;2024-01-06T13:25:54;19.60;;;5.73;;
81180;SDS011;70650;51.408;7.132;2024-01-06T13:28:19;18.33;;;6.40;;
81180;SDS011;70650;51.408;7.132;2024-01-06T13:30:44;19.57;;;5.90;;
81180;SDS011;70650;51.408;7.132;2024-01-06T13:33:10;13.93;;;5.77;;
81180;SDS011;70650;51.408;7.132;2024-01-06T13:35:36;15.85;;;5.53;;
81180;SDS011;70650;51.408;7.132;2024-01-06T13:38:02;16.48;;;5.10;;
81180;SDS011;70650;51.408;7.132;2024-01-06T13:40:29;18.70;;;6.05;;
81180;SDS011;70650;51.408;7.132;2024-01-06T13:42:55;15.73;;;5.00;;
81180;SDS011;70650;51.408;7.132;2024-01-06T13:45:20;15.13;;;5.60;;
81180;SDS011;70650;51.408;7.132;2024-01-06T13:47:46;16.30;;;5.40;;
81180;SDS011;70650;51.408;7.132;2024-01-06T13:50:12;15.05;;;4.70;;
81180;SDS011;70650;51.408;7.132;2024-01-06T13:52:38;13.20;;;4.22;;
81180;SDS011;70650;51.408;7.132;2024-01-06T13:55:03;14.48;;;4.95;;
81180;SDS011;70650;51.408;7.132;2024-01-06T13:57:31;14.27;;;5.10;;
81180;SDS011;70650;51.408;7.132;2024-01-06T13:59:56;13.13;;;4.68;;
81180;SDS011;70650;51.408;7.132;2024-01-06T14:02:22;14.63;;;4.40;;
81180;SDS011;70650;51.408;7.132;2024-01-06T14:04:48;13.70;;;4.30;;
81180;SDS011;70650;51.408;7.132;2024-01-06T14:07:13;13.70;;;5.03;;
81180;SDS011;70650;51.408;7.132;2024-01-06T14:09:39;15.38;;;5.15;;
81180;SDS011;70650;51.408;7.132;2024-01-06T14:12:04;12.77;;;4.90;;
81180;SDS011;70650;51.408;7.132;2024-01-06T14:14:33;15.55;;;4.90;;
81180;SDS011;70650;51.408;7.132;2024-01-06T14:16:58;14.35;;;5.50;;
81180;SDS011;70650;51.408;7.132;2024-01-06T14:19:24;15.60;;;5.43;;
81180;SDS011;70650;51.408;7.132;2024-01-06T14:21:49;16.83;;;5.10;;
81180;SDS011;70650;51.408;7.132;2024-01-06T14:24:15;15.85;;;5.45;;
81180;SDS011;70650;51.408;7.132;2024-01-06T14:26:43;12.85;;;4.50;;
81180;SDS011;70650;51.408;7.132;2024-01-06T14:29:09;15.45;;;5.03;;
81180;SDS011;70650;51.408;7.132;2024-01-06T14:31:34;18.77;;;5.57;;